Aérodrome :
LOGIN :

S'inscrire | Disclaimer

   EN    FR    IT 

 










Légende :    VFR   VFR Marginal   IFR   IFR Intensif   IFR Très Intensif
Visi : 
Plafond : 
>= 8 km
>= 3000ft
5 à 8 km
1000 à 3000 ft
1500m à 5 km
500 à 1000 ft
800 à 1500m
200 à 500 ft
< 800m
< 200 ft
Symboles :   Orages  Brouillard  Fortes neiges  Fortes précipitations  Vent > 20 kt
SIGMETs :   Divers  Orages  Givrage  Turbulence  Onde Orograph.  Cendres Volcan.






- Altitude de l'aérodrome : 287 ft


LFRL - Lanveoc Poulmic

DERNIER METAR :
  • 031000Z AUTO 24013KT 9999 BKN021 BKN027 17/11 Q1022 NOSIG

METARs EXPIRÉS :
  • 030930Z AUTO 24013KT 9999 BKN016 BKN025 BKN031 16/11 Q1022 NOSIG
  • 030900Z AUTO 24012KT 9999 BKN015 BKN024 BKN036 16/12 Q1022 NOSIG
  • 030830Z AUTO 25010KT 9999 BKN013 BKN021 BKN033 16/13 Q1022 BECMG SCT015 BKN025
  • 030800Z AUTO 24012KT 9999 BKN015 BKN024 16/12 Q1022 NOSIG
  • 030730Z AUTO 24010KT 9999 BKN015 BKN021 BKN026 15/12 Q1022 NOSIG

TAF TAF LFRL
Valide du 03 à 06h jusqu'au 04 à 06h UTC


030500Z 0306/0406 24005KT 9999 SCT015 BKN025
BECMG 0312/0315 23015G25KT
BECMG 0320/0322 BKN012
BECMG 0322/0324 2000 -RADZ BKN002 OVC005



MET'MAP, la Météo Aéronautique d'un coup d'oeil ! - Copyright ORBIFLY Décembre 2007 - Disclaimer

ORBIFLY MET'MAP TEAM :

Programmation & Développement : Alexandra Zaïnal
Sur une idée originale de : Baudouin d'Aumeries
Assistance à la programmation : Marc-Olivier Méhu
Soutien technique & logistique : Manuel Goepfert

Contact : metmap@orbifly.com




SOURCES & CREDITS :

   NOAA